createdAt,value
2023-05-13T00:01:58.999Z,13.90
2023-05-13T00:04:25.857Z,13.80
2023-05-13T00:06:52.642Z,13.80
2023-05-13T00:09:19.457Z,13.80
2023-05-13T00:11:46.372Z,13.80
2023-05-13T00:14:13.293Z,13.80
2023-05-13T00:16:40.496Z,13.80
2023-05-13T00:19:07.532Z,13.80
2023-05-13T00:21:34.763Z,13.80
2023-05-13T00:24:01.723Z,13.80
2023-05-13T00:26:28.651Z,13.80
2023-05-13T00:28:55.615Z,13.80
2023-05-13T00:31:22.500Z,13.80
2023-05-13T00:33:49.415Z,13.80
2023-05-13T00:36:16.316Z,13.80
2023-05-13T00:38:44.280Z,13.80
2023-05-13T00:41:12.470Z,13.80
2023-05-13T00:43:39.438Z,13.70
2023-05-13T00:46:06.905Z,13.80
2023-05-13T00:48:34.409Z,13.80
2023-05-13T00:51:01.336Z,13.80
2023-05-13T00:53:28.311Z,13.80
2023-05-13T00:55:55.778Z,13.80
2023-05-13T00:58:22.687Z,13.80
2023-05-13T01:01:05.350Z,13.70
2023-05-13T01:04:17.666Z,13.80
2023-05-13T01:07:24.280Z,13.80
2023-05-13T01:10:14.804Z,13.70
2023-05-13T01:12:46.276Z,13.70
2023-05-13T01:15:24.495Z,13.70
2023-05-13T01:18:12.601Z,13.70
2023-05-13T01:20:46.757Z,13.70
2023-05-13T01:23:13.673Z,13.70
2023-05-13T01:25:40.873Z,13.70
2023-05-13T01:28:09.395Z,13.70
2023-05-13T01:30:36.805Z,13.70
2023-05-13T01:33:04.174Z,13.70
2023-05-13T01:35:32.178Z,13.60
2023-05-13T01:38:00.812Z,13.60
2023-05-13T01:40:32.861Z,13.60
2023-05-13T01:43:01.012Z,13.60
2023-05-13T01:45:29.999Z,13.60
2023-05-13T01:47:56.964Z,13.60
2023-05-13T01:50:24.276Z,13.60
2023-05-13T01:52:51.434Z,13.50
2023-05-13T01:55:19.467Z,13.60
2023-05-13T01:57:46.308Z,13.50
2023-05-13T02:00:13.963Z,13.50
2023-05-13T02:02:40.871Z,13.50
2023-05-13T02:05:08.417Z,13.40
2023-05-13T02:07:35.280Z,13.50
2023-05-13T02:10:02.126Z,13.50
2023-05-13T02:12:28.997Z,13.50
2023-05-13T02:14:56.249Z,13.50
2023-05-13T02:17:23.167Z,13.50
2023-05-13T02:19:50.709Z,13.50
2023-05-13T02:22:17.590Z,13.50
2023-05-13T02:24:44.473Z,13.50
2023-05-13T02:27:12.942Z,13.50
2023-05-13T02:29:39.870Z,13.50
2023-05-13T02:32:07.617Z,13.50
2023-05-13T02:34:34.693Z,13.40
2023-05-13T02:37:04.164Z,13.40
2023-05-13T02:39:31.014Z,13.40
2023-05-13T02:41:58.035Z,13.40
2023-05-13T02:44:24.849Z,13.40
2023-05-13T02:46:51.784Z,13.30
2023-05-13T02:49:18.653Z,13.30
2023-05-13T02:51:45.584Z,13.30
2023-05-13T02:54:12.407Z,13.30
2023-05-13T02:56:39.216Z,13.30
2023-05-13T02:59:06.047Z,13.30
2023-05-13T03:01:32.905Z,13.30
2023-05-13T03:03:59.780Z,13.30
2023-05-13T03:06:27.136Z,13.30
2023-05-13T03:08:54.025Z,13.30
2023-05-13T03:11:21.724Z,13.30
2023-05-13T03:13:48.545Z,13.30
2023-05-13T03:16:15.571Z,13.30
2023-05-13T03:18:45.121Z,13.30
2023-05-13T03:21:11.978Z,13.40
2023-05-13T03:23:38.793Z,13.40
2023-05-13T03:26:05.828Z,13.40
2023-05-13T03:28:32.691Z,13.40
2023-05-13T03:30:59.884Z,13.40
2023-05-13T03:33:27.020Z,13.40
2023-05-13T03:35:53.856Z,13.40
2023-05-13T03:38:20.695Z,13.40
2023-05-13T03:40:47.587Z,13.50
2023-05-13T03:43:14.497Z,13.40
2023-05-13T03:45:41.426Z,13.40
2023-05-13T03:48:08.366Z,13.40
2023-05-13T03:50:35.441Z,13.40
2023-05-13T03:53:04.325Z,13.40
2023-05-13T03:55:31.274Z,13.40
2023-05-13T03:57:58.105Z,13.40
2023-05-13T04:00:24.952Z,13.40
2023-05-13T04:02:51.964Z,13.40
2023-05-13T04:05:19.117Z,13.40
2023-05-13T04:07:46.396Z,13.40
2023-05-13T04:10:15.387Z,13.40
2023-05-13T04:12:42.695Z,13.40
2023-05-13T04:15:10.129Z,13.40
2023-05-13T04:17:37.008Z,13.40
2023-05-13T04:20:04.390Z,13.40
2023-05-13T04:22:33.983Z,13.40
2023-05-13T04:25:00.803Z,13.40
2023-05-13T04:27:27.597Z,13.40
2023-05-13T04:29:54.431Z,13.40
2023-05-13T04:32:22.142Z,13.40
2023-05-13T04:34:49.632Z,13.40
2023-05-13T04:37:16.791Z,13.40
2023-05-13T04:39:48.717Z,13.30
2023-05-13T04:42:16.563Z,13.30
2023-05-13T04:44:43.978Z,13.30
2023-05-13T04:47:11.316Z,13.30
2023-05-13T04:49:38.198Z,13.30
2023-05-13T04:52:06.710Z,13.20
2023-05-13T04:54:35.715Z,13.20
2023-05-13T04:57:03.488Z,13.20
2023-05-13T04:59:31.047Z,13.20
2023-05-13T05:01:58.428Z,13.20
2023-05-13T05:04:25.680Z,13.20
2023-05-13T05:06:58.134Z,13.20
2023-05-13T05:09:25.039Z,13.20
2023-05-13T05:11:51.813Z,13.20
2023-05-13T05:14:18.706Z,13.20
2023-05-13T05:16:45.698Z,13.20
2023-05-13T05:19:15.294Z,13.20
2023-05-13T05:21:42.166Z,13.20
2023-05-13T05:24:09.000Z,13.30
2023-05-13T05:26:35.809Z,13.30
2023-05-13T05:29:02.651Z,13.30
2023-05-13T05:31:30.369Z,13.40
2023-05-13T05:33:57.682Z,13.30
2023-05-13T05:36:24.662Z,13.30
2023-05-13T05:38:51.479Z,13.30
2023-05-13T05:41:18.435Z,13.40
2023-05-13T05:43:45.266Z,13.40
2023-05-13T05:46:12.080Z,13.40
2023-05-13T05:48:39.042Z,13.40
2023-05-13T05:51:06.153Z,13.30
2023-05-13T05:53:35.631Z,13.40
2023-05-13T05:56:02.455Z,13.40
2023-05-13T05:58:29.593Z,13.30
2023-05-13T06:00:57.162Z,13.40
2023-05-13T06:03:24.486Z,13.30
2023-05-13T06:05:51.495Z,13.40
2023-05-13T06:08:18.389Z,13.40
2023-05-13T06:10:45.490Z,13.40
2023-05-13T06:13:12.288Z,13.40
2023-05-13T06:15:39.184Z,13.40
2023-05-13T06:18:06.386Z,13.40
2023-05-13T06:20:33.403Z,13.50
2023-05-13T06:23:00.544Z,13.50
2023-05-13T06:25:27.339Z,13.50
2023-05-13T06:27:54.174Z,13.50
2023-05-13T06:30:21.806Z,13.50
2023-05-13T06:32:57.757Z,13.60
2023-05-13T06:35:28.648Z,13.60
2023-05-13T06:37:55.546Z,13.60
2023-05-13T06:40:22.572Z,13.60
2023-05-13T06:42:49.716Z,13.60
2023-05-13T06:45:16.722Z,13.70
2023-05-13T06:47:43.730Z,13.70
2023-05-13T06:50:11.162Z,13.80
2023-05-13T06:52:39.411Z,13.80
2023-05-13T06:55:08.798Z,13.80
2023-05-13T06:57:41.856Z,13.90
2023-05-13T07:00:10.205Z,13.90
2023-05-13T07:02:38.208Z,13.90
2023-05-13T07:05:05.630Z,13.90
2023-05-13T07:07:32.443Z,14.00
2023-05-13T07:09:59.310Z,14.00
2023-05-13T07:12:26.165Z,14.00
2023-05-13T07:14:52.986Z,14.10
2023-05-13T07:17:19.896Z,14.10
2023-05-13T07:19:47.460Z,14.10
2023-05-13T07:22:14.300Z,14.10
2023-05-13T07:24:41.793Z,14.10
2023-05-13T07:27:08.641Z,14.20
2023-05-13T07:29:35.465Z,14.20
2023-05-13T07:32:06.898Z,14.20
2023-05-13T07:34:33.834Z,14.10
2023-05-13T07:37:00.715Z,14.10
2023-05-13T07:39:28.404Z,14.30
2023-05-13T07:41:55.304Z,14.20
2023-05-13T07:44:22.672Z,14.20
2023-05-13T07:46:51.544Z,14.20
2023-05-13T07:49:18.392Z,14.20
2023-05-13T07:51:45.246Z,14.20
2023-05-13T07:54:12.129Z,14.20
2023-05-13T07:56:39.075Z,14.20
2023-05-13T07:59:05.954Z,14.20
2023-05-13T08:01:32.915Z,14.20
2023-05-13T08:03:59.933Z,14.20
2023-05-13T08:06:26.953Z,14.30
2023-05-13T08:08:53.814Z,14.30
2023-05-13T08:11:21.718Z,14.30
2023-05-13T08:13:48.644Z,14.30
2023-05-13T08:16:15.561Z,14.30
2023-05-13T08:18:42.601Z,14.30
2023-05-13T08:21:09.523Z,14.30
2023-05-13T08:23:45.468Z,14.30
2023-05-13T08:26:13.939Z,14.40
2023-05-13T08:28:42.005Z,14.40
2023-05-13T08:31:14.217Z,14.40
2023-05-13T08:33:42.682Z,14.40
2023-05-13T08:36:09.966Z,14.50
2023-05-13T08:38:36.838Z,14.50
2023-05-13T08:41:07.782Z,14.50
2023-05-13T08:43:35.554Z,14.50
2023-05-13T08:46:04.542Z,14.50
2023-05-13T08:48:32.972Z,14.50
2023-05-13T08:51:02.226Z,14.50
2023-05-13T08:53:29.596Z,14.60
2023-05-13T08:55:59.715Z,14.60
2023-05-13T08:58:26.729Z,14.70
2023-05-13T09:00:54.402Z,14.70
2023-05-13T09:03:21.853Z,14.70
2023-05-13T09:05:48.840Z,14.70
2023-05-13T09:08:15.842Z,14.70
2023-05-13T09:10:42.999Z,14.70
2023-05-13T09:13:13.161Z,14.70
2023-05-13T09:15:43.233Z,14.80
2023-05-13T09:18:10.973Z,14.80
2023-05-13T09:20:38.296Z,14.80
2023-05-13T09:23:11.099Z,14.80
2023-05-13T09:25:38.804Z,14.90
2023-05-13T09:28:07.848Z,14.90
2023-05-13T09:30:42.627Z,14.90
2023-05-13T09:33:21.868Z,15.00
2023-05-13T09:35:54.954Z,15.00
2023-05-13T09:38:26.327Z,15.10
2023-05-13T09:40:59.586Z,15.10
2023-05-13T09:43:32.769Z,15.30
2023-05-13T09:46:05.091Z,15.40
2023-05-13T09:48:34.375Z,15.60
2023-05-13T09:51:01.416Z,15.80
2023-05-13T09:53:29.166Z,15.90
2023-05-13T09:55:58.679Z,16.20
2023-05-13T09:58:31.067Z,16.50
2023-05-13T10:00:58.646Z,16.90
2023-05-13T10:03:25.736Z,17.30
2023-05-13T10:05:53.722Z,17.60
2023-05-13T10:08:22.179Z,17.80
2023-05-13T10:10:53.780Z,17.90
2023-05-13T10:13:25.358Z,17.90
2023-05-13T10:15:55.181Z,17.90
2023-05-13T10:18:27.229Z,17.90
2023-05-13T10:20:55.250Z,17.90
2023-05-13T10:23:24.235Z,17.80
2023-05-13T10:25:53.928Z,17.70
2023-05-13T10:28:21.442Z,17.70
2023-05-13T10:30:53.276Z,17.60
2023-05-13T10:33:21.202Z,17.50
2023-05-13T10:36:31.681Z,17.50
2023-05-13T10:39:24.354Z,17.50
2023-05-13T10:42:15.036Z,17.50
2023-05-13T10:44:42.573Z,17.50
2023-05-13T10:47:11.220Z,17.60
2023-05-13T10:49:39.272Z,17.60
2023-05-13T10:52:09.871Z,17.60
2023-05-13T10:54:40.526Z,17.60
2023-05-13T10:57:08.892Z,17.60
2023-05-13T10:59:37.223Z,17.60
2023-05-13T11:02:22.362Z,17.50
2023-05-13T11:05:01.631Z,17.50
2023-05-13T11:07:31.604Z,17.40
2023-05-13T11:09:59.960Z,17.30
2023-05-13T11:12:26.805Z,17.20
2023-05-13T11:14:56.627Z,17.20
2023-05-13T11:17:23.572Z,17.10
2023-05-13T11:19:52.445Z,17.10
2023-05-13T11:22:26.300Z,17.00
2023-05-13T11:25:10.244Z,17.00
2023-05-13T11:27:42.902Z,17.00
2023-05-13T11:30:30.188Z,17.00
2023-05-13T11:33:02.760Z,17.00
2023-05-13T11:35:32.359Z,17.00
2023-05-13T11:38:02.556Z,17.00
2023-05-13T11:40:32.911Z,17.00
2023-05-13T11:43:01.135Z,17.00
2023-05-13T11:45:30.866Z,17.10
2023-05-13T11:47:59.084Z,17.20
2023-05-13T11:50:30.996Z,17.30
2023-05-13T11:53:00.887Z,17.40
2023-05-13T11:55:31.479Z,17.60
2023-05-13T11:57:59.664Z,17.70
2023-05-13T12:00:35.011Z,17.80
2023-05-13T12:03:11.858Z,17.90
2023-05-13T12:05:40.019Z,18.00
2023-05-13T12:08:10.798Z,18.10
2023-05-13T12:10:43.733Z,18.10
2023-05-13T12:13:11.109Z,18.20
2023-05-13T12:15:38.360Z,18.20
2023-05-13T12:18:06.813Z,18.10
2023-05-13T12:20:33.702Z,18.10
2023-05-13T12:23:01.975Z,18.00
2023-05-13T12:25:43.586Z,18.00
2023-05-13T12:28:13.785Z,18.00
2023-05-13T12:30:44.105Z,17.90
2023-05-13T12:33:31.485Z,17.90
2023-05-13T12:36:38.651Z,18.00
2023-05-13T12:39:11.043Z,17.90
2023-05-13T12:41:40.841Z,17.90
2023-05-13T12:44:14.134Z,17.90
2023-05-13T12:46:57.800Z,17.80
2023-05-13T12:49:25.196Z,17.80
2023-05-13T12:51:52.133Z,17.80
2023-05-13T12:54:19.138Z,17.70
2023-05-13T12:56:46.183Z,17.70
2023-05-13T12:59:14.337Z,17.70
2023-05-13T13:01:42.854Z,17.70
2023-05-13T13:04:10.071Z,17.70
2023-05-13T13:06:37.189Z,17.60
2023-05-13T13:09:04.143Z,17.70
2023-05-13T13:11:31.091Z,17.60
2023-05-13T13:13:57.937Z,17.60
2023-05-13T13:16:24.898Z,17.60
2023-05-13T13:18:54.292Z,17.60
2023-05-13T13:21:22.681Z,17.60
2023-05-13T13:23:49.526Z,17.50
2023-05-13T13:26:16.522Z,17.60
2023-05-13T13:28:43.372Z,17.60
2023-05-13T13:31:11.779Z,17.60
2023-05-13T13:33:38.609Z,17.60
2023-05-13T13:36:05.966Z,17.60
2023-05-13T13:38:32.813Z,17.60
2023-05-13T13:40:59.715Z,17.60
2023-05-13T13:43:26.823Z,17.70
2023-05-13T13:45:53.922Z,17.70
2023-05-13T13:48:21.948Z,17.80
2023-05-13T13:50:52.954Z,17.80
2023-05-13T13:53:19.945Z,17.90
2023-05-13T13:55:46.973Z,18.00
2023-05-13T13:58:14.446Z,18.20
2023-05-13T14:00:41.350Z,18.40
2023-05-13T14:03:08.387Z,18.70
2023-05-13T14:05:35.306Z,18.90
2023-05-13T14:08:02.155Z,19.20
2023-05-13T14:10:29.231Z,19.50
2023-05-13T14:12:56.371Z,19.60
2023-05-13T14:15:24.314Z,19.80
2023-05-13T14:17:51.154Z,19.80
2023-05-13T14:20:18.092Z,19.80
2023-05-13T14:22:44.863Z,19.80
2023-05-13T14:25:11.677Z,19.80
2023-05-13T14:27:38.559Z,19.80
2023-05-13T14:30:06.842Z,19.80
2023-05-13T14:32:34.331Z,19.90
2023-05-13T14:35:01.208Z,19.90
2023-05-13T14:37:28.014Z,19.90
2023-05-13T14:39:55.992Z,19.90
2023-05-13T14:42:22.886Z,20.00
2023-05-13T14:44:49.696Z,20.20
2023-05-13T14:47:16.574Z,20.40
2023-05-13T14:49:43.600Z,20.70
2023-05-13T14:52:10.579Z,21.00
2023-05-13T14:54:38.239Z,21.40
2023-05-13T14:57:07.144Z,21.90
2023-05-13T14:59:34.629Z,22.50
2023-05-13T15:02:03.439Z,23.00
2023-05-13T15:04:30.794Z,23.50
2023-05-13T15:06:58.366Z,23.90
2023-05-13T15:09:25.341Z,24.20
2023-05-13T15:11:52.273Z,24.60
2023-05-13T15:14:20.968Z,25.10
2023-05-13T15:16:47.819Z,25.60
2023-05-13T15:19:14.701Z,26.00
2023-05-13T15:21:41.504Z,26.20
2023-05-13T15:24:08.381Z,26.10
2023-05-13T15:26:35.276Z,25.90
2023-05-13T15:29:02.205Z,25.70
2023-05-13T15:31:31.675Z,25.40
2023-05-13T15:33:59.408Z,25.20
2023-05-13T15:36:26.301Z,24.80
2023-05-13T15:38:53.168Z,24.60
2023-05-13T15:41:19.981Z,24.50
2023-05-13T15:43:46.819Z,24.40
2023-05-13T15:46:13.730Z,24.30
2023-05-13T15:48:40.633Z,24.00
2023-05-13T15:51:07.446Z,23.80
2023-05-13T15:53:34.765Z,23.60
2023-05-13T15:56:01.645Z,23.30
2023-05-13T15:58:28.458Z,23.00
2023-05-13T16:00:55.810Z,22.80
2023-05-13T16:03:22.788Z,22.60
2023-05-13T16:05:49.841Z,22.40
2023-05-13T16:08:17.072Z,22.10
2023-05-13T16:10:43.940Z,21.90
2023-05-13T16:13:10.963Z,21.70
2023-05-13T16:15:37.905Z,21.50
2023-05-13T16:18:04.868Z,21.30
2023-05-13T16:20:31.739Z,21.20
2023-05-13T16:22:58.538Z,21.00
2023-05-13T16:25:25.961Z,20.90
2023-05-13T16:27:52.891Z,20.80
2023-05-13T16:30:19.820Z,20.60
2023-05-13T16:32:48.941Z,20.50
2023-05-13T16:35:15.964Z,20.40
2023-05-13T16:37:42.806Z,20.30
2023-05-13T16:40:10.939Z,20.20
2023-05-13T16:42:37.805Z,20.10
2023-05-13T16:45:06.582Z,20.00
2023-05-13T16:47:34.047Z,19.90
2023-05-13T16:50:00.965Z,19.80
2023-05-13T16:52:27.922Z,19.80
2023-05-13T16:54:56.628Z,19.70
2023-05-13T16:57:24.891Z,19.60
2023-05-13T16:59:51.767Z,19.50
2023-05-13T17:02:18.629Z,19.50
2023-05-13T17:04:45.458Z,19.40
2023-05-13T17:07:12.347Z,19.40
2023-05-13T17:09:39.221Z,19.30
2023-05-13T17:12:06.697Z,19.30
2023-05-13T17:14:33.622Z,19.30
2023-05-13T17:17:00.605Z,19.20
2023-05-13T17:27:19.771Z,19.00
2023-05-13T17:29:46.638Z,18.90
2023-05-13T17:32:13.457Z,18.80
2023-05-13T17:34:40.404Z,18.80
2023-05-13T17:37:10.403Z,18.70
2023-05-13T17:39:37.246Z,18.60
2023-05-13T17:42:04.167Z,18.60
2023-05-13T17:44:31.094Z,18.50
2023-05-13T17:46:57.932Z,18.40
2023-05-13T17:49:24.854Z,18.40
2023-05-13T17:51:51.741Z,18.30
2023-05-13T17:54:18.595Z,18.30
2023-05-13T17:56:45.440Z,18.20
2023-05-13T17:59:12.237Z,18.20
2023-05-13T18:01:39.098Z,18.10
2023-05-13T18:04:06.014Z,18.10
2023-05-13T18:06:33.364Z,18.00
2023-05-13T18:09:00.239Z,18.00
2023-05-13T18:11:27.057Z,17.90
2023-05-13T18:13:53.897Z,17.90
2023-05-13T18:16:21.022Z,17.80
2023-05-13T18:18:48.683Z,17.80
2023-05-13T18:21:15.780Z,17.80
2023-05-13T18:23:45.720Z,17.70
2023-05-13T18:26:12.645Z,17.70
2023-05-13T18:28:42.331Z,17.70
2023-05-13T18:31:09.343Z,17.60
2023-05-13T18:33:36.215Z,17.60
2023-05-13T18:36:03.056Z,17.60
2023-05-13T18:38:29.889Z,17.60
2023-05-13T18:40:56.737Z,17.50
2023-05-13T18:43:23.637Z,17.50
2023-05-13T18:45:50.539Z,17.40
2023-05-13T18:48:17.488Z,17.50
2023-05-13T18:50:44.378Z,17.40
2023-05-13T18:53:11.283Z,17.40
2023-05-13T18:55:38.531Z,17.40
2023-05-13T18:58:08.732Z,17.40
2023-05-13T19:00:37.435Z,17.40
2023-05-13T19:03:04.644Z,17.40
2023-05-13T19:05:31.774Z,17.30
2023-05-13T19:08:06.780Z,17.30
2023-05-13T19:10:39.114Z,17.30
2023-05-13T19:13:07.166Z,17.30
2023-05-13T19:15:34.395Z,17.20
2023-05-13T19:18:01.659Z,17.10
2023-05-13T19:20:30.018Z,17.10
2023-05-13T19:22:57.184Z,17.00
2023-05-13T19:25:24.218Z,17.00
2023-05-13T19:27:51.190Z,16.90
2023-05-13T19:30:18.143Z,16.80
2023-05-13T19:32:45.043Z,16.60
2023-05-13T19:35:12.074Z,16.50
2023-05-13T19:37:39.077Z,16.40
2023-05-13T19:40:06.812Z,16.30
2023-05-13T19:42:33.684Z,16.20
2023-05-13T19:45:00.524Z,16.00
2023-05-13T19:47:27.660Z,16.00
2023-05-13T19:49:54.551Z,15.90
2023-05-13T19:52:21.360Z,15.90
2023-05-13T19:54:48.242Z,15.80
2023-05-13T19:57:15.246Z,15.70
2023-05-13T19:59:42.158Z,15.70
2023-05-13T20:02:09.260Z,15.60
2023-05-13T20:04:36.494Z,15.50
2023-05-13T20:07:04.108Z,15.50
2023-05-13T20:09:31.367Z,15.40
2023-05-13T20:11:58.270Z,15.40
2023-05-13T20:14:27.650Z,15.40
2023-05-13T20:16:54.900Z,15.40
2023-05-13T20:19:21.849Z,15.40
2023-05-13T20:21:48.784Z,15.40
2023-05-13T20:24:15.762Z,15.40
2023-05-13T20:26:42.597Z,15.40
2023-05-13T20:29:09.447Z,15.40
2023-05-13T20:31:36.390Z,15.30
2023-05-13T20:34:03.872Z,15.40
2023-05-13T20:36:32.590Z,15.40
2023-05-13T20:38:59.500Z,15.40
2023-05-13T20:41:26.318Z,15.40
2023-05-13T20:43:53.169Z,15.40
2023-05-13T20:46:20.027Z,15.40
2023-05-13T20:48:48.024Z,15.40
2023-05-13T20:51:14.928Z,15.40
2023-05-13T20:53:41.756Z,15.40
2023-05-13T20:56:09.994Z,15.50
2023-05-13T20:58:37.114Z,15.50
2023-05-13T21:01:04.037Z,15.40
2023-05-13T21:03:32.815Z,15.50
2023-05-13T21:05:59.654Z,15.50
2023-05-13T21:08:26.608Z,15.50
2023-05-13T21:10:56.224Z,15.50
2023-05-13T21:13:23.264Z,15.40
2023-05-13T21:15:51.928Z,15.40
2023-05-13T21:18:18.893Z,15.50
2023-05-13T21:20:46.374Z,15.40
2023-05-13T21:23:13.273Z,15.40
2023-05-13T21:25:40.386Z,15.50
2023-05-13T21:28:07.531Z,15.50
2023-05-13T21:30:34.677Z,15.50
2023-05-13T21:33:01.682Z,15.50
2023-05-13T21:35:28.720Z,15.50
2023-05-13T21:38:04.522Z,15.50
2023-05-13T21:40:38.805Z,15.60
2023-05-13T21:43:05.662Z,15.60
2023-05-13T21:45:32.532Z,15.60
2023-05-13T21:47:59.477Z,15.60
2023-05-13T21:50:26.406Z,15.60
2023-05-13T21:52:53.302Z,15.60
2023-05-13T21:55:20.268Z,15.60
2023-05-13T21:57:48.337Z,15.70
2023-05-13T22:00:18.915Z,15.70
2023-05-13T22:02:46.420Z,15.70
2023-05-13T22:05:13.875Z,15.70
2023-05-13T22:07:40.788Z,15.70
2023-05-13T22:10:08.648Z,15.70
2023-05-13T22:12:35.801Z,15.70
2023-05-13T22:15:02.718Z,15.70
2023-05-13T22:17:29.636Z,15.70
2023-05-13T22:19:56.835Z,15.70
2023-05-13T22:22:23.720Z,15.70
2023-05-13T22:24:50.642Z,15.70
2023-05-13T22:27:17.493Z,15.70
2023-05-13T22:29:44.308Z,15.70
2023-05-13T22:32:11.245Z,15.70
2023-05-13T22:34:38.163Z,15.70
2023-05-13T22:37:05.440Z,15.70
2023-05-13T22:39:32.366Z,15.70
2023-05-13T22:41:59.277Z,15.70
2023-05-13T22:44:26.150Z,15.70
2023-05-13T22:46:53.990Z,15.70
2023-05-13T22:49:20.982Z,15.70
2023-05-13T22:51:47.887Z,15.70
2023-05-13T22:54:14.776Z,15.60
2023-05-13T22:56:41.630Z,15.70
2023-05-13T22:59:08.483Z,15.70
2023-05-13T23:01:35.539Z,15.60
2023-05-13T23:04:04.050Z,15.60
2023-05-13T23:06:30.952Z,15.60
2023-05-13T23:08:58.107Z,15.60
2023-05-13T23:11:24.925Z,15.60
2023-05-13T23:13:51.785Z,15.60
2023-05-13T23:16:21.631Z,15.60
2023-05-13T23:18:48.514Z,15.60
2023-05-13T23:21:15.616Z,15.50
2023-05-13T23:23:42.460Z,15.50
2023-05-13T23:26:09.368Z,15.50
2023-05-13T23:28:36.248Z,15.40
2023-05-13T23:31:03.209Z,15.40
2023-05-13T23:33:30.105Z,15.40
2023-05-13T23:35:57.049Z,15.30
2023-05-13T23:38:24.173Z,15.30
2023-05-13T23:40:51.120Z,15.30
2023-05-13T23:43:18.063Z,15.30
2023-05-13T23:45:46.161Z,15.20
2023-05-13T23:48:13.215Z,15.20
2023-05-13T23:50:42.006Z,15.20
2023-05-13T23:53:08.897Z,15.10
2023-05-13T23:55:35.881Z,15.10
2023-05-13T23:58:02.807Z,15.10
